sensor_id;sensor_type;location;lat;lon;timestamp;temperature;humidity
16666;DHT22;8446;50.998;6.250;2023-11-19T00:01:08;12.40;99.90
16666;DHT22;8446;50.998;6.250;2023-11-19T00:03:35;12.40;99.90
16666;DHT22;8446;50.998;6.250;2023-11-19T00:06:04;12.40;99.90
16666;DHT22;8446;50.998;6.250;2023-11-19T00:08:30;12.40;99.90
16666;DHT22;8446;50.998;6.250;2023-11-19T00:10:57;12.50;99.90
16666;DHT22;8446;50.998;6.250;2023-11-19T00:13:24;12.40;99.90
16666;DHT22;8446;50.998;6.250;2023-11-19T00:15:51;12.50;99.90
16666;DHT22;8446;50.998;6.250;2023-11-19T00:18:18;12.40;99.90
16666;DHT22;8446;50.998;6.250;2023-11-19T00:20:45;12.40;99.90
16666;DHT22;8446;50.998;6.250;2023-11-19T00:23:13;12.40;99.90
16666;DHT22;8446;50.998;6.250;2023-11-19T00:25:40;12.40;99.90
16666;DHT22;8446;50.998;6.250;2023-11-19T00:28:06;12.40;99.90
16666;DHT22;8446;50.998;6.250;2023-11-19T00:30:33;12.40;99.90
16666;DHT22;8446;50.998;6.250;2023-11-19T00:33:00;12.30;99.90
16666;DHT22;8446;50.998;6.250;2023-11-19T00:35:27;12.30;99.90
16666;DHT22;8446;50.998;6.250;2023-11-19T00:37:53;12.40;99.90
16666;DHT22;8446;50.998;6.250;2023-11-19T00:40:22;12.30;99.90
16666;DHT22;8446;50.998;6.250;2023-11-19T00:42:49;12.40;99.90
16666;DHT22;8446;50.998;6.250;2023-11-19T00:45:16;12.40;99.90
16666;DHT22;8446;50.998;6.250;2023-11-19T00:47:43;12.40;99.90
16666;DHT22;8446;50.998;6.250;2023-11-19T00:50:10;12.30;99.90
16666;DHT22;8446;50.998;6.250;2023-11-19T00:52:38;12.40;99.90
16666;DHT22;8446;50.998;6.250;2023-11-19T00:55:06;12.40;99.90
16666;DHT22;8446;50.998;6.250;2023-11-19T00:57:34;12.40;99.90
16666;DHT22;8446;50.998;6.250;2023-11-19T01:00:01;12.30;99.90
16666;DHT22;8446;50.998;6.250;2023-11-19T01:02:32;12.40;99.90
16666;DHT22;8446;50.998;6.250;2023-11-19T01:05:00;12.40;99.90
16666;DHT22;8446;50.998;6.250;2023-11-19T01:07:26;12.40;99.90
16666;DHT22;8446;50.998;6.250;2023-11-19T01:09:53;12.40;99.90
16666;DHT22;8446;50.998;6.250;2023-11-19T01:12:23;12.50;99.90
16666;DHT22;8446;50.998;6.250;2023-11-19T01:14:51;12.50;99.90
16666;DHT22;8446;50.998;6.250;2023-11-19T01:17:18;12.60;99.90
16666;DHT22;8446;50.998;6.250;2023-11-19T01:19:45;12.60;99.90
16666;DHT22;8446;50.998;6.250;2023-11-19T01:22:11;12.60;99.90
16666;DHT22;8446;50.998;6.250;2023-11-19T01:24:38;12.60;99.90
16666;DHT22;8446;50.998;6.250;2023-11-19T01:27:05;12.60;99.90
16666;DHT22;8446;50.998;6.250;2023-11-19T01:29:32;12.60;99.90
16666;DHT22;8446;50.998;6.250;2023-11-19T01:32:00;12.70;99.90
16666;DHT22;8446;50.998;6.250;2023-11-19T01:34:26;12.70;99.90
16666;DHT22;8446;50.998;6.250;2023-11-19T01:36:54;12.80;99.90
16666;DHT22;8446;50.998;6.250;2023-11-19T01:39:20;12.80;99.90
16666;DHT22;8446;50.998;6.250;2023-11-19T01:41:47;12.80;99.90
16666;DHT22;8446;50.998;6.250;2023-11-19T01:44:14;12.80;99.90
16666;DHT22;8446;50.998;6.250;2023-11-19T01:46:43;12.80;99.90
16666;DHT22;8446;50.998;6.250;2023-11-19T01:49:12;12.90;99.90
16666;DHT22;8446;50.998;6.250;2023-11-19T01:51:40;12.80;99.90
16666;DHT22;8446;50.998;6.250;2023-11-19T01:54:08;12.80;99.90
16666;DHT22;8446;50.998;6.250;2023-11-19T01:56:35;12.90;99.90
16666;DHT22;8446;50.998;6.250;2023-11-19T01:59:02;13.00;99.90
16666;DHT22;8446;50.998;6.250;2023-11-19T02:01:29;13.00;99.90
16666;DHT22;8446;50.998;6.250;2023-11-19T02:03:58;13.00;99.90
16666;DHT22;8446;50.998;6.250;2023-11-19T02:06:27;13.10;99.90
16666;DHT22;8446;50.998;6.250;2023-11-19T02:08:54;13.00;99.90
16666;DHT22;8446;50.998;6.250;2023-11-19T02:11:21;13.00;99.90
16666;DHT22;8446;50.998;6.250;2023-11-19T02:13:48;13.00;99.90
16666;DHT22;8446;50.998;6.250;2023-11-19T02:16:14;12.90;99.90
16666;DHT22;8446;50.998;6.250;2023-11-19T02:18:41;12.90;99.90
16666;DHT22;8446;50.998;6.250;2023-11-19T02:21:08;12.90;99.90
16666;DHT22;8446;50.998;6.250;2023-11-19T02:23:37;12.80;99.90
16666;DHT22;8446;50.998;6.250;2023-11-19T02:26:12;12.80;99.90
16666;DHT22;8446;50.998;6.250;2023-11-19T02:28:43;12.80;99.90
16666;DHT22;8446;50.998;6.250;2023-11-19T02:31:10;12.80;99.90
16666;DHT22;8446;50.998;6.250;2023-11-19T02:33:37;12.80;99.90
16666;DHT22;8446;50.998;6.250;2023-11-19T02:36:04;12.80;99.90
16666;DHT22;8446;50.998;6.250;2023-11-19T02:38:32;12.80;99.90
16666;DHT22;8446;50.998;6.250;2023-11-19T02:41:01;12.80;99.90
16666;DHT22;8446;50.998;6.250;2023-11-19T02:43:30;12.80;99.90
16666;DHT22;8446;50.998;6.250;2023-11-19T02:46:00;12.80;99.90
16666;DHT22;8446;50.998;6.250;2023-11-19T02:48:27;12.80;99.90
16666;DHT22;8446;50.998;6.250;2023-11-19T02:50:53;12.70;99.90
16666;DHT22;8446;50.998;6.250;2023-11-19T02:53:23;12.70;99.90
16666;DHT22;8446;50.998;6.250;2023-11-19T02:55:53;12.80;99.90
16666;DHT22;8446;50.998;6.250;2023-11-19T02:58:26;12.90;99.90
16666;DHT22;8446;50.998;6.250;2023-11-19T03:00:54;12.90;99.90
16666;DHT22;8446;50.998;6.250;2023-11-19T03:03:24;13.00;99.90
16666;DHT22;8446;50.998;6.250;2023-11-19T03:05:56;13.10;99.90
16666;DHT22;8446;50.998;6.250;2023-11-19T03:08:23;13.00;99.90
16666;DHT22;8446;50.998;6.250;2023-11-19T03:10:50;13.00;99.90
16666;DHT22;8446;50.998;6.250;2023-11-19T03:13:16;12.90;99.90
16666;DHT22;8446;50.998;6.250;2023-11-19T03:15:43;12.90;99.90
16666;DHT22;8446;50.998;6.250;2023-11-19T03:18:10;12.80;99.90
16666;DHT22;8446;50.998;6.250;2023-11-19T03:20:38;12.80;99.90
16666;DHT22;8446;50.998;6.250;2023-11-19T03:23:05;12.80;99.90
16666;DHT22;8446;50.998;6.250;2023-11-19T03:25:32;12.80;99.90
16666;DHT22;8446;50.998;6.250;2023-11-19T03:28:00;12.80;99.90
16666;DHT22;8446;50.998;6.250;2023-11-19T03:30:27;12.70;99.90
16666;DHT22;8446;50.998;6.250;2023-11-19T03:32:55;12.70;99.90
16666;DHT22;8446;50.998;6.250;2023-11-19T03:35:22;12.60;99.90
16666;DHT22;8446;50.998;6.250;2023-11-19T03:37:50;12.50;99.90
16666;DHT22;8446;50.998;6.250;2023-11-19T03:40:18;12.60;99.90
16666;DHT22;8446;50.998;6.250;2023-11-19T03:42:45;12.60;99.90
16666;DHT22;8446;50.998;6.250;2023-11-19T03:45:12;12.60;99.90
16666;DHT22;8446;50.998;6.250;2023-11-19T03:47:40;12.50;99.90
16666;DHT22;8446;50.998;6.250;2023-11-19T03:50:07;12.50;99.90
16666;DHT22;8446;50.998;6.250;2023-11-19T03:52:34;12.40;99.90
16666;DHT22;8446;50.998;6.250;2023-11-19T03:55:03;12.40;99.90
16666;DHT22;8446;50.998;6.250;2023-11-19T03:57:30;12.30;99.90
16666;DHT22;8446;50.998;6.250;2023-11-19T03:59:57;12.30;99.90
16666;DHT22;8446;50.998;6.250;2023-11-19T04:02:25;12.30;99.90
16666;DHT22;8446;50.998;6.250;2023-11-19T04:04:54;12.40;99.90
16666;DHT22;8446;50.998;6.250;2023-11-19T04:07:21;12.40;99.90
16666;DHT22;8446;50.998;6.250;2023-11-19T04:09:48;12.30;99.90
16666;DHT22;8446;50.998;6.250;2023-11-19T04:12:16;12.30;99.90
16666;DHT22;8446;50.998;6.250;2023-11-19T04:14:43;12.30;99.90
16666;DHT22;8446;50.998;6.250;2023-11-19T04:17:10;12.30;99.90
16666;DHT22;8446;50.998;6.250;2023-11-19T04:19:37;12.30;99.90
16666;DHT22;8446;50.998;6.250;2023-11-19T04:22:07;12.40;99.90
16666;DHT22;8446;50.998;6.250;2023-11-19T04:24:33;12.40;99.90
16666;DHT22;8446;50.998;6.250;2023-11-19T04:27:00;12.40;99.90
16666;DHT22;8446;50.998;6.250;2023-11-19T04:29:29;12.50;99.90
16666;DHT22;8446;50.998;6.250;2023-11-19T04:31:56;12.50;99.90
16666;DHT22;8446;50.998;6.250;2023-11-19T04:34:23;12.40;99.90
16666;DHT22;8446;50.998;6.250;2023-11-19T04:36:49;12.40;99.90
16666;DHT22;8446;50.998;6.250;2023-11-19T04:39:16;12.40;99.90
16666;DHT22;8446;50.998;6.250;2023-11-19T04:41:47;12.40;99.90
16666;DHT22;8446;50.998;6.250;2023-11-19T04:44:14;12.40;99.90
16666;DHT22;8446;50.998;6.250;2023-11-19T04:46:43;12.40;99.90
16666;DHT22;8446;50.998;6.250;2023-11-19T04:49:11;12.40;99.90
16666;DHT22;8446;50.998;6.250;2023-11-19T04:51:39;12.30;99.90
16666;DHT22;8446;50.998;6.250;2023-11-19T04:54:06;12.20;99.90
16666;DHT22;8446;50.998;6.250;2023-11-19T04:56:34;12.20;99.90
16666;DHT22;8446;50.998;6.250;2023-11-19T04:59:02;12.10;99.90
16666;DHT22;8446;50.998;6.250;2023-11-19T05:01:28;12.10;99.90
16666;DHT22;8446;50.998;6.250;2023-11-19T05:03:57;12.20;99.90
16666;DHT22;8446;50.998;6.250;2023-11-19T05:06:26;12.10;99.90
16666;DHT22;8446;50.998;6.250;2023-11-19T05:08:54;12.00;99.90
16666;DHT22;8446;50.998;6.250;2023-11-19T05:11:21;12.00;99.90
16666;DHT22;8446;50.998;6.250;2023-11-19T05:13:48;12.00;99.90
16666;DHT22;8446;50.998;6.250;2023-11-19T05:16:15;12.10;99.90
16666;DHT22;8446;50.998;6.250;2023-11-19T05:18:43;12.00;99.90
16666;DHT22;8446;50.998;6.250;2023-11-19T05:21:11;11.80;99.90
16666;DHT22;8446;50.998;6.250;2023-11-19T05:23:37;11.80;99.90
16666;DHT22;8446;50.998;6.250;2023-11-19T05:26:05;11.80;99.90
16666;DHT22;8446;50.998;6.250;2023-11-19T05:28:32;11.90;99.90
16666;DHT22;8446;50.998;6.250;2023-11-19T05:30:58;11.90;99.90
16666;DHT22;8446;50.998;6.250;2023-11-19T05:33:26;11.90;99.90
16666;DHT22;8446;50.998;6.250;2023-11-19T05:35:52;11.90;99.90
16666;DHT22;8446;50.998;6.250;2023-11-19T05:38:20;11.80;99.90
16666;DHT22;8446;50.998;6.250;2023-11-19T05:40:47;11.80;99.90
16666;DHT22;8446;50.998;6.250;2023-11-19T05:43:15;11.80;99.90
16666;DHT22;8446;50.998;6.250;2023-11-19T05:45:42;11.70;99.90
16666;DHT22;8446;50.998;6.250;2023-11-19T05:48:09;11.70;99.90
16666;DHT22;8446;50.998;6.250;2023-11-19T05:50:36;11.70;99.90
16666;DHT22;8446;50.998;6.250;2023-11-19T05:53:03;11.80;99.90
16666;DHT22;8446;50.998;6.250;2023-11-19T05:55:33;11.80;99.90
16666;DHT22;8446;50.998;6.250;2023-11-19T05:58:01;11.70;99.90
16666;DHT22;8446;50.998;6.250;2023-11-19T06:00:28;11.70;99.90
16666;DHT22;8446;50.998;6.250;2023-11-19T06:02:56;11.80;99.90
16666;DHT22;8446;50.998;6.250;2023-11-19T06:05:23;11.80;99.90
16666;DHT22;8446;50.998;6.250;2023-11-19T06:07:49;11.80;99.90
16666;DHT22;8446;50.998;6.250;2023-11-19T06:10:17;11.80;99.90
16666;DHT22;8446;50.998;6.250;2023-11-19T06:12:46;11.80;99.90
16666;DHT22;8446;50.998;6.250;2023-11-19T06:15:13;11.80;99.90
16666;DHT22;8446;50.998;6.250;2023-11-19T06:17:39;11.90;99.90
16666;DHT22;8446;50.998;6.250;2023-11-19T06:20:07;11.90;99.90
16666;DHT22;8446;50.998;6.250;2023-11-19T06:22:34;11.80;99.90
16666;DHT22;8446;50.998;6.250;2023-11-19T06:25:01;11.70;99.90
16666;DHT22;8446;50.998;6.250;2023-11-19T06:27:32;11.70;99.90
16666;DHT22;8446;50.998;6.250;2023-11-19T06:30:00;11.70;99.90
16666;DHT22;8446;50.998;6.250;2023-11-19T06:32:27;11.70;99.90
16666;DHT22;8446;50.998;6.250;2023-11-19T06:34:54;11.70;99.90
16666;DHT22;8446;50.998;6.250;2023-11-19T06:37:21;11.60;99.90
16666;DHT22;8446;50.998;6.250;2023-11-19T06:39:48;11.60;99.90
16666;DHT22;8446;50.998;6.250;2023-11-19T06:42:15;11.50;99.90
16666;DHT22;8446;50.998;6.250;2023-11-19T06:44:42;11.50;99.90
16666;DHT22;8446;50.998;6.250;2023-11-19T06:47:10;11.50;99.90
16666;DHT22;8446;50.998;6.250;2023-11-19T06:49:37;11.40;99.90
16666;DHT22;8446;50.998;6.250;2023-11-19T06:52:04;11.40;99.90
16666;DHT22;8446;50.998;6.250;2023-11-19T06:54:31;11.50;99.90
16666;DHT22;8446;50.998;6.250;2023-11-19T06:56:58;11.50;99.90
16666;DHT22;8446;50.998;6.250;2023-11-19T06:59:25;11.40;99.90
16666;DHT22;8446;50.998;6.250;2023-11-19T07:01:52;11.40;99.90
16666;DHT22;8446;50.998;6.250;2023-11-19T07:04:20;11.30;99.90
16666;DHT22;8446;50.998;6.250;2023-11-19T07:06:47;11.30;99.90
16666;DHT22;8446;50.998;6.250;2023-11-19T07:09:14;11.30;99.90
16666;DHT22;8446;50.998;6.250;2023-11-19T07:11:42;11.30;99.90
16666;DHT22;8446;50.998;6.250;2023-11-19T07:14:09;11.40;99.90
16666;DHT22;8446;50.998;6.250;2023-11-19T07:16:37;11.50;99.90
16666;DHT22;8446;50.998;6.250;2023-11-19T07:19:04;11.50;99.90
16666;DHT22;8446;50.998;6.250;2023-11-19T07:21:33;11.40;99.90
16666;DHT22;8446;50.998;6.250;2023-11-19T07:24:00;11.50;99.90
16666;DHT22;8446;50.998;6.250;2023-11-19T07:26:26;11.50;99.90
16666;DHT22;8446;50.998;6.250;2023-11-19T07:28:53;11.40;99.90
16666;DHT22;8446;50.998;6.250;2023-11-19T07:31:21;11.50;99.90
16666;DHT22;8446;50.998;6.250;2023-11-19T07:33:49;11.40;99.90
16666;DHT22;8446;50.998;6.250;2023-11-19T07:36:16;11.50;99.90
16666;DHT22;8446;50.998;6.250;2023-11-19T07:38:45;11.50;99.90
16666;DHT22;8446;50.998;6.250;2023-11-19T07:41:13;11.50;99.90
16666;DHT22;8446;50.998;6.250;2023-11-19T07:43:41;11.30;99.90
16666;DHT22;8446;50.998;6.250;2023-11-19T07:46:11;11.40;99.90
16666;DHT22;8446;50.998;6.250;2023-11-19T07:48:39;11.40;99.90
16666;DHT22;8446;50.998;6.250;2023-11-19T07:51:06;11.50;99.90
16666;DHT22;8446;50.998;6.250;2023-11-19T07:53:33;11.70;99.90
16666;DHT22;8446;50.998;6.250;2023-11-19T07:56:01;11.70;99.90
16666;DHT22;8446;50.998;6.250;2023-11-19T07:58:28;11.70;99.90
16666;DHT22;8446;50.998;6.250;2023-11-19T08:00:54;11.70;99.90
16666;DHT22;8446;50.998;6.250;2023-11-19T08:03:21;11.70;99.90
16666;DHT22;8446;50.998;6.250;2023-11-19T08:05:48;11.70;99.90
16666;DHT22;8446;50.998;6.250;2023-11-19T08:08:15;11.70;99.90
16666;DHT22;8446;50.998;6.250;2023-11-19T08:10:42;11.70;99.90
16666;DHT22;8446;50.998;6.250;2023-11-19T08:13:11;11.80;99.90
16666;DHT22;8446;50.998;6.250;2023-11-19T08:15:38;11.80;99.90
16666;DHT22;8446;50.998;6.250;2023-11-19T08:18:05;11.70;99.90
16666;DHT22;8446;50.998;6.250;2023-11-19T08:20:32;11.70;99.90
16666;DHT22;8446;50.998;6.250;2023-11-19T08:23:01;11.70;99.90
16666;DHT22;8446;50.998;6.250;2023-11-19T08:25:29;11.70;99.90
16666;DHT22;8446;50.998;6.250;2023-11-19T08:27:56;11.70;99.90
16666;DHT22;8446;50.998;6.250;2023-11-19T08:30:24;11.80;99.90
16666;DHT22;8446;50.998;6.250;2023-11-19T08:32:50;11.80;99.90
16666;DHT22;8446;50.998;6.250;2023-11-19T08:35:17;11.90;99.90
16666;DHT22;8446;50.998;6.250;2023-11-19T08:37:44;11.90;99.90
16666;DHT22;8446;50.998;6.250;2023-11-19T08:40:12;11.90;99.90
16666;DHT22;8446;50.998;6.250;2023-11-19T08:42:39;11.90;99.90
16666;DHT22;8446;50.998;6.250;2023-11-19T08:45:07;12.00;99.90
16666;DHT22;8446;50.998;6.250;2023-11-19T08:47:37;12.00;99.90
16666;DHT22;8446;50.998;6.250;2023-11-19T08:50:06;12.00;99.90
16666;DHT22;8446;50.998;6.250;2023-11-19T08:52:33;12.10;99.90
16666;DHT22;8446;50.998;6.250;2023-11-19T08:55:01;12.10;99.90
16666;DHT22;8446;50.998;6.250;2023-11-19T08:57:28;12.10;99.90
16666;DHT22;8446;50.998;6.250;2023-11-19T08:59:55;12.10;99.90
16666;DHT22;8446;50.998;6.250;2023-11-19T09:02:21;12.10;99.90
16666;DHT22;8446;50.998;6.250;2023-11-19T09:04:50;12.20;99.90
16666;DHT22;8446;50.998;6.250;2023-11-19T09:07:17;12.20;99.90
16666;DHT22;8446;50.998;6.250;2023-11-19T09:09:43;12.30;99.90
16666;DHT22;8446;50.998;6.250;2023-11-19T09:12:11;12.30;99.90
16666;DHT22;8446;50.998;6.250;2023-11-19T09:14:39;12.40;99.90
16666;DHT22;8446;50.998;6.250;2023-11-19T09:17:07;12.40;99.90
16666;DHT22;8446;50.998;6.250;2023-11-19T09:19:35;12.40;99.90
16666;DHT22;8446;50.998;6.250;2023-11-19T09:22:03;12.50;99.90
16666;DHT22;8446;50.998;6.250;2023-11-19T09:24:30;12.60;99.90
16666;DHT22;8446;50.998;6.250;2023-11-19T09:26:57;12.60;99.90
16666;DHT22;8446;50.998;6.250;2023-11-19T09:29:23;12.60;99.90
16666;DHT22;8446;50.998;6.250;2023-11-19T09:31:50;12.60;99.90
16666;DHT22;8446;50.998;6.250;2023-11-19T09:34:17;12.60;99.90
16666;DHT22;8446;50.998;6.250;2023-11-19T09:36:44;12.60;99.90
16666;DHT22;8446;50.998;6.250;2023-11-19T09:39:12;12.70;99.90
16666;DHT22;8446;50.998;6.250;2023-11-19T09:41:40;12.70;99.90
16666;DHT22;8446;50.998;6.250;2023-11-19T09:44:08;12.70;99.90
16666;DHT22;8446;50.998;6.250;2023-11-19T09:46:35;12.70;99.90
16666;DHT22;8446;50.998;6.250;2023-11-19T09:49:02;12.80;99.90
16666;DHT22;8446;50.998;6.250;2023-11-19T09:51:30;12.80;99.90
16666;DHT22;8446;50.998;6.250;2023-11-19T09:53:58;12.80;99.90
16666;DHT22;8446;50.998;6.250;2023-11-19T09:56:28;13.00;99.90
16666;DHT22;8446;50.998;6.250;2023-11-19T09:58:57;13.00;99.90
16666;DHT22;8446;50.998;6.250;2023-11-19T10:01:24;13.10;99.90
16666;DHT22;8446;50.998;6.250;2023-11-19T10:03:54;13.20;99.90
16666;DHT22;8446;50.998;6.250;2023-11-19T10:06:23;13.40;99.90
16666;DHT22;8446;50.998;6.250;2023-11-19T10:08:52;13.50;99.90
16666;DHT22;8446;50.998;6.250;2023-11-19T10:11:19;13.30;99.90
16666;DHT22;8446;50.998;6.250;2023-11-19T10:13:47;13.10;99.90
16666;DHT22;8446;50.998;6.250;2023-11-19T10:16:15;13.00;99.90
16666;DHT22;8446;50.998;6.250;2023-11-19T10:18:44;13.00;99.90
16666;DHT22;8446;50.998;6.250;2023-11-19T10:21:12;13.10;99.90
16666;DHT22;8446;50.998;6.250;2023-11-19T10:23:49;13.10;99.90
16666;DHT22;8446;50.998;6.250;2023-11-19T10:26:17;13.30;99.90
16666;DHT22;8446;50.998;6.250;2023-11-19T10:28:43;13.10;99.90
16666;DHT22;8446;50.998;6.250;2023-11-19T10:31:13;13.20;99.90
16666;DHT22;8446;50.998;6.250;2023-11-19T10:33:40;13.20;99.90
16666;DHT22;8446;50.998;6.250;2023-11-19T10:36:08;13.10;99.90
16666;DHT22;8446;50.998;6.250;2023-11-19T10:38:35;13.10;99.90
16666;DHT22;8446;50.998;6.250;2023-11-19T10:41:02;13.00;99.90
16666;DHT22;8446;50.998;6.250;2023-11-19T10:43:29;12.80;99.90
16666;DHT22;8446;50.998;6.250;2023-11-19T10:46:09;12.50;99.90
16666;DHT22;8446;50.998;6.250;2023-11-19T10:48:38;12.40;99.90
16666;DHT22;8446;50.998;6.250;2023-11-19T10:51:06;12.60;99.90
16666;DHT22;8446;50.998;6.250;2023-11-19T10:53:36;13.00;99.90
16666;DHT22;8446;50.998;6.250;2023-11-19T10:56:06;13.10;99.90
16666;DHT22;8446;50.998;6.250;2023-11-19T10:58:37;13.20;99.90
16666;DHT22;8446;50.998;6.250;2023-11-19T11:01:09;13.20;99.90
16666;DHT22;8446;50.998;6.250;2023-11-19T11:03:40;13.40;99.90
16666;DHT22;8446;50.998;6.250;2023-11-19T11:06:07;13.30;99.90
16666;DHT22;8446;50.998;6.250;2023-11-19T11:08:36;13.20;99.90
16666;DHT22;8446;50.998;6.250;2023-11-19T11:11:04;13.10;99.90
16666;DHT22;8446;50.998;6.250;2023-11-19T11:13:32;12.90;99.90
16666;DHT22;8446;50.998;6.250;2023-11-19T11:16:00;12.70;99.90
16666;DHT22;8446;50.998;6.250;2023-11-19T11:18:27;12.60;99.90
16666;DHT22;8446;50.998;6.250;2023-11-19T11:20:58;12.70;99.90
16666;DHT22;8446;50.998;6.250;2023-11-19T11:24:01;12.90;99.90
16666;DHT22;8446;50.998;6.250;2023-11-19T11:26:53;12.70;99.90
16666;DHT22;8446;50.998;6.250;2023-11-19T11:29:29;12.70;99.90
16666;DHT22;8446;50.998;6.250;2023-11-19T11:32:05;13.00;99.90
16666;DHT22;8446;50.998;6.250;2023-11-19T11:34:53;13.10;99.90
16666;DHT22;8446;50.998;6.250;2023-11-19T11:37:30;13.10;99.90
16666;DHT22;8446;50.998;6.250;2023-11-19T11:39:58;13.20;99.90
16666;DHT22;8446;50.998;6.250;2023-11-19T11:42:35;13.40;99.90
16666;DHT22;8446;50.998;6.250;2023-11-19T11:45:03;13.40;99.90
16666;DHT22;8446;50.998;6.250;2023-11-19T11:48:05;13.50;99.90
16666;DHT22;8446;50.998;6.250;2023-11-19T11:50:36;13.50;99.90
16666;DHT22;8446;50.998;6.250;2023-11-19T11:53:21;13.40;99.90
16666;DHT22;8446;50.998;6.250;2023-11-19T11:55:57;13.20;99.90
16666;DHT22;8446;50.998;6.250;2023-11-19T11:58:29;13.10;99.90
16666;DHT22;8446;50.998;6.250;2023-11-19T12:00:58;13.10;99.90
16666;DHT22;8446;50.998;6.250;2023-11-19T12:03:27;13.10;99.90
16666;DHT22;8446;50.998;6.250;2023-11-19T12:05:54;13.20;99.90
16666;DHT22;8446;50.998;6.250;2023-11-19T12:08:26;13.30;99.90
16666;DHT22;8446;50.998;6.250;2023-11-19T12:10:54;13.50;99.90
16666;DHT22;8446;50.998;6.250;2023-11-19T12:13:23;13.40;99.90
16666;DHT22;8446;50.998;6.250;2023-11-19T12:16:08;13.30;99.90
16666;DHT22;8446;50.998;6.250;2023-11-19T12:18:36;13.20;99.90
16666;DHT22;8446;50.998;6.250;2023-11-19T12:21:05;13.10;99.90
16666;DHT22;8446;50.998;6.250;2023-11-19T12:23:44;13.00;99.90
16666;DHT22;8446;50.998;6.250;2023-11-19T12:26:36;12.80;99.90
16666;DHT22;8446;50.998;6.250;2023-11-19T12:29:03;12.60;99.90
16666;DHT22;8446;50.998;6.250;2023-11-19T12:31:32;12.40;99.90
16666;DHT22;8446;50.998;6.250;2023-11-19T12:34:05;12.30;99.90
16666;DHT22;8446;50.998;6.250;2023-11-19T12:36:32;12.20;99.90
16666;DHT22;8446;50.998;6.250;2023-11-19T12:39:00;12.10;99.90
16666;DHT22;8446;50.998;6.250;2023-11-19T12:41:27;12.00;99.90
16666;DHT22;8446;50.998;6.250;2023-11-19T12:44:03;12.00;99.90
16666;DHT22;8446;50.998;6.250;2023-11-19T12:46:35;12.20;99.90
16666;DHT22;8446;50.998;6.250;2023-11-19T12:49:01;12.30;99.90
16666;DHT22;8446;50.998;6.250;2023-11-19T12:51:30;12.40;99.90
16666;DHT22;8446;50.998;6.250;2023-11-19T12:53:57;12.40;99.90
16666;DHT22;8446;50.998;6.250;2023-11-19T12:56:26;12.40;99.90
16666;DHT22;8446;50.998;6.250;2023-11-19T12:58:52;12.30;99.90
16666;DHT22;8446;50.998;6.250;2023-11-19T13:01:20;12.30;99.90
16666;DHT22;8446;50.998;6.250;2023-11-19T13:03:47;12.50;99.90
16666;DHT22;8446;50.998;6.250;2023-11-19T13:06:17;12.60;99.90
16666;DHT22;8446;50.998;6.250;2023-11-19T13:08:47;12.60;99.90
16666;DHT22;8446;50.998;6.250;2023-11-19T13:11:31;12.60;99.90
16666;DHT22;8446;50.998;6.250;2023-11-19T13:14:00;12.80;99.90
16666;DHT22;8446;50.998;6.250;2023-11-19T13:16:29;13.00;99.90
16666;DHT22;8446;50.998;6.250;2023-11-19T13:18:56;13.00;99.90
16666;DHT22;8446;50.998;6.250;2023-11-19T13:21:24;13.10;99.90
16666;DHT22;8446;50.998;6.250;2023-11-19T13:23:52;13.00;99.90
16666;DHT22;8446;50.998;6.250;2023-11-19T13:26:19;12.90;99.90
16666;DHT22;8446;50.998;6.250;2023-11-19T13:28:47;13.00;99.90
16666;DHT22;8446;50.998;6.250;2023-11-19T13:31:13;12.90;99.90
16666;DHT22;8446;50.998;6.250;2023-11-19T13:33:40;12.80;99.90
16666;DHT22;8446;50.998;6.250;2023-11-19T13:36:08;12.70;99.90
16666;DHT22;8446;50.998;6.250;2023-11-19T13:38:36;12.70;99.90
16666;DHT22;8446;50.998;6.250;2023-11-19T13:41:03;12.80;99.90
16666;DHT22;8446;50.998;6.250;2023-11-19T13:43:30;12.70;99.90
16666;DHT22;8446;50.998;6.250;2023-11-19T13:45:59;12.60;99.90
16666;DHT22;8446;50.998;6.250;2023-11-19T13:48:26;12.60;99.90
16666;DHT22;8446;50.998;6.250;2023-11-19T13:50:54;12.60;99.90
16666;DHT22;8446;50.998;6.250;2023-11-19T13:53:21;12.60;99.90
16666;DHT22;8446;50.998;6.250;2023-11-19T13:55:48;12.60;99.90
16666;DHT22;8446;50.998;6.250;2023-11-19T13:58:15;12.70;99.90
16666;DHT22;8446;50.998;6.250;2023-11-19T14:00:42;12.70;99.90
16666;DHT22;8446;50.998;6.250;2023-11-19T14:03:11;12.80;99.90
16666;DHT22;8446;50.998;6.250;2023-11-19T14:05:39;12.80;99.90
16666;DHT22;8446;50.998;6.250;2023-11-19T14:08:06;12.70;99.90
16666;DHT22;8446;50.998;6.250;2023-11-19T14:10:37;12.60;99.90
16666;DHT22;8446;50.998;6.250;2023-11-19T14:13:05;12.60;99.90
16666;DHT22;8446;50.998;6.250;2023-11-19T14:15:32;12.80;99.90
16666;DHT22;8446;50.998;6.250;2023-11-19T14:17:59;12.80;99.90
16666;DHT22;8446;50.998;6.250;2023-11-19T14:20:27;12.60;99.90
16666;DHT22;8446;50.998;6.250;2023-11-19T14:22:54;12.60;99.90
16666;DHT22;8446;50.998;6.250;2023-11-19T14:25:21;12.60;99.90
16666;DHT22;8446;50.998;6.250;2023-11-19T14:27:49;12.50;99.90
16666;DHT22;8446;50.998;6.250;2023-11-19T14:30:16;12.40;99.90
16666;DHT22;8446;50.998;6.250;2023-11-19T14:32:43;12.30;99.90
16666;DHT22;8446;50.998;6.250;2023-11-19T14:35:11;12.20;99.90
16666;DHT22;8446;50.998;6.250;2023-11-19T14:37:39;12.20;99.90
16666;DHT22;8446;50.998;6.250;2023-11-19T14:40:07;12.30;99.90
16666;DHT22;8446;50.998;6.250;2023-11-19T14:42:36;12.30;99.90
16666;DHT22;8446;50.998;6.250;2023-11-19T14:45:05;12.20;99.90
16666;DHT22;8446;50.998;6.250;2023-11-19T14:47:32;12.20;99.90
16666;DHT22;8446;50.998;6.250;2023-11-19T14:49:58;12.30;99.90
16666;DHT22;8446;50.998;6.250;2023-11-19T14:52:25;12.40;99.90
16666;DHT22;8446;50.998;6.250;2023-11-19T14:54:54;12.30;99.90
16666;DHT22;8446;50.998;6.250;2023-11-19T14:57:22;12.20;99.90
16666;DHT22;8446;50.998;6.250;2023-11-19T14:59:48;12.10;99.90
16666;DHT22;8446;50.998;6.250;2023-11-19T15:02:15;12.00;99.90
16666;DHT22;8446;50.998;6.250;2023-11-19T15:04:42;12.00;99.90
16666;DHT22;8446;50.998;6.250;2023-11-19T15:07:09;12.00;99.90
16666;DHT22;8446;50.998;6.250;2023-11-19T15:09:37;11.90;99.90
16666;DHT22;8446;50.998;6.250;2023-11-19T15:12:06;11.90;99.90
16666;DHT22;8446;50.998;6.250;2023-11-19T15:14:32;11.80;99.90
16666;DHT22;8446;50.998;6.250;2023-11-19T15:16:59;11.70;99.90
16666;DHT22;8446;50.998;6.250;2023-11-19T15:19:26;11.60;99.90
16666;DHT22;8446;50.998;6.250;2023-11-19T15:21:53;11.50;99.90
16666;DHT22;8446;50.998;6.250;2023-11-19T15:24:20;11.40;99.90
16666;DHT22;8446;50.998;6.250;2023-11-19T15:26:47;11.40;99.90
16666;DHT22;8446;50.998;6.250;2023-11-19T15:29:15;11.40;99.90
16666;DHT22;8446;50.998;6.250;2023-11-19T15:31:42;11.30;99.90
16666;DHT22;8446;50.998;6.250;2023-11-19T15:34:09;11.30;99.90
16666;DHT22;8446;50.998;6.250;2023-11-19T15:36:36;11.40;99.90
16666;DHT22;8446;50.998;6.250;2023-11-19T15:39:03;11.50;99.90
16666;DHT22;8446;50.998;6.250;2023-11-19T15:41:30;11.50;99.90
16666;DHT22;8446;50.998;6.250;2023-11-19T15:43:58;11.50;99.90
16666;DHT22;8446;50.998;6.250;2023-11-19T15:46:26;11.60;99.90
16666;DHT22;8446;50.998;6.250;2023-11-19T15:48:53;11.70;99.90
16666;DHT22;8446;50.998;6.250;2023-11-19T15:51:20;11.60;99.90